createdAt,value
2023-04-19T00:02:43.403Z,9.70
2023-04-19T00:05:16.605Z,9.68
2023-04-19T00:07:51.871Z,8.35
2023-04-19T00:10:25.296Z,7.95
2023-04-19T00:12:58.160Z,7.45
2023-04-19T00:15:31.900Z,10.15
2023-04-19T00:18:05.230Z,9.57
2023-04-19T00:20:40.042Z,8.27
2023-04-19T00:23:14.401Z,8.63
2023-04-19T00:25:47.639Z,7.85
2023-04-19T00:28:20.767Z,7.97
2023-04-19T00:30:54.522Z,8.65
2023-04-19T00:33:28.155Z,9.65
2023-04-19T00:36:03.414Z,8.45
2023-04-19T00:38:38.052Z,8.38
2023-04-19T00:41:11.199Z,8.88
2023-04-19T00:43:44.349Z,8.13
2023-04-19T00:46:18.112Z,7.38
2023-04-19T00:48:52.347Z,9.15
2023-04-19T00:51:27.320Z,7.43
2023-04-19T00:54:05.112Z,8.55
2023-04-19T00:56:38.528Z,11.10
2023-04-19T00:59:12.559Z,10.68
2023-04-19T01:01:45.793Z,9.70
2023-04-19T01:04:19.260Z,9.77
2023-04-19T01:06:52.746Z,10.50
2023-04-19T01:09:26.998Z,8.82
2023-04-19T01:12:04.202Z,10.23
2023-04-19T01:14:37.936Z,9.85
2023-04-19T01:17:16.774Z,8.18
2023-04-19T01:19:50.135Z,8.70
2023-04-19T01:22:24.654Z,7.88
2023-04-19T01:24:59.148Z,8.30
2023-04-19T01:27:32.778Z,8.43
2023-04-19T01:30:06.809Z,7.72
2023-04-19T01:32:39.762Z,9.80
2023-04-19T01:37:46.945Z,8.40
2023-04-19T01:40:20.646Z,9.57
2023-04-19T01:42:54.424Z,8.15
2023-04-19T01:45:27.828Z,7.88
2023-04-19T01:48:01.495Z,7.95
2023-04-19T01:50:34.872Z,7.53
2023-04-19T01:53:11.225Z,6.28
2023-04-19T01:55:44.017Z,7.25
2023-04-19T01:58:17.508Z,7.55
2023-04-19T02:00:51.886Z,9.00
2023-04-19T02:03:25.291Z,8.20
2023-04-19T02:05:58.502Z,10.77
2023-04-19T02:08:33.785Z,8.75
2023-04-19T02:11:08.202Z,8.68
2023-04-19T02:13:42.033Z,8.57
2023-04-19T02:16:16.874Z,9.27
2023-04-19T02:18:51.115Z,8.05
2023-04-19T02:21:30.528Z,11.23
2023-04-19T02:24:04.972Z,10.18
2023-04-19T02:26:38.555Z,9.95
2023-04-19T02:29:11.864Z,11.25
2023-04-19T02:31:46.595Z,9.68
2023-04-19T02:34:19.552Z,11.93
2023-04-19T02:36:52.361Z,10.63
2023-04-19T02:39:26.529Z,9.80
2023-04-19T02:41:59.374Z,13.05
2023-04-19T02:44:32.625Z,12.05
2023-04-19T02:47:05.617Z,11.77
2023-04-19T02:49:41.504Z,11.95
2023-04-19T02:52:15.773Z,11.15
2023-04-19T02:57:22.893Z,9.73
2023-04-19T03:02:28.630Z,13.00
2023-04-19T03:05:03.869Z,13.02
2023-04-19T03:07:39.535Z,10.73
2023-04-19T03:10:14.838Z,11.70
2023-04-19T03:12:51.682Z,12.02
2023-04-19T03:15:25.405Z,13.43
2023-04-19T03:17:58.494Z,11.18
2023-04-19T03:20:31.934Z,12.75
2023-04-19T03:23:04.760Z,12.93
2023-04-19T03:25:40.291Z,11.77
2023-04-19T03:28:24.952Z,11.63
2023-04-19T03:31:16.558Z,12.85
2023-04-19T03:33:50.753Z,12.63
2023-04-19T03:36:25.265Z,12.48
2023-04-19T03:38:58.368Z,13.10
2023-04-19T03:41:34.071Z,12.43
2023-04-19T03:44:23.753Z,13.32
2023-04-19T03:49:39.783Z,10.57
2023-04-19T03:52:13.016Z,14.48
2023-04-19T03:54:45.888Z,12.57
2023-04-19T03:57:33.158Z,12.55
2023-04-19T04:00:10.823Z,11.93
2023-04-19T04:02:54.601Z,10.40
2023-04-19T04:05:28.750Z,11.98
2023-04-19T04:08:02.262Z,15.30
2023-04-19T04:10:35.268Z,11.85
2023-04-19T04:15:50.849Z,14.20
2023-04-19T04:20:56.891Z,15.35
2023-04-19T04:23:30.234Z,11.00
2023-04-19T04:26:05.517Z,13.18
2023-04-19T04:29:02.998Z,11.70
2023-04-19T04:31:38.070Z,12.35
2023-04-19T04:34:11.465Z,12.30
2023-04-19T04:36:58.034Z,11.27
2023-04-19T04:39:39.659Z,13.88
2023-04-19T04:42:17.843Z,12.07
2023-04-19T04:44:53.512Z,13.80
2023-04-19T04:47:27.420Z,14.90
2023-04-19T04:50:02.482Z,11.52
2023-04-19T04:52:36.661Z,13.48
2023-04-19T04:55:19.650Z,12.57
2023-04-19T04:57:53.925Z,13.75
2023-04-19T05:00:43.062Z,13.30
2023-04-19T05:03:16.907Z,14.20
2023-04-19T05:05:55.189Z,14.60
2023-04-19T05:08:30.020Z,14.10
2023-04-19T05:11:14.596Z,13.07
2023-04-19T05:13:49.135Z,11.25
2023-04-19T05:16:23.549Z,10.88
2023-04-19T05:18:56.524Z,14.95
2023-04-19T05:21:30.979Z,13.57
2023-04-19T05:26:39.400Z,13.77
2023-04-19T05:29:13.424Z,14.40
2023-04-19T05:31:54.413Z,13.65
2023-04-19T05:34:34.452Z,14.85
2023-04-19T05:37:07.594Z,15.35
2023-04-19T05:42:17.028Z,16.17
2023-04-19T05:47:24.687Z,19.45
2023-04-19T05:50:08.935Z,24.35
2023-04-19T05:52:46.296Z,24.05
2023-04-19T05:55:20.057Z,21.67
2023-04-19T05:57:55.691Z,24.42
2023-04-19T06:00:31.408Z,22.38
2023-04-19T06:03:14.770Z,21.30
2023-04-19T06:05:47.834Z,20.95
2023-04-19T06:21:23.817Z,16.70
2023-04-19T06:30:20.461Z,12.70
2023-04-19T06:32:53.863Z,14.85
2023-04-19T06:35:26.735Z,14.55
2023-04-19T06:38:00.215Z,12.32
2023-04-19T06:40:35.514Z,15.85
2023-04-19T06:43:08.382Z,14.90
2023-04-19T06:45:42.539Z,11.68
2023-04-19T06:48:15.808Z,12.90
2023-04-19T06:50:48.539Z,13.00
2023-04-19T06:53:21.423Z,13.32
2023-04-19T06:58:34.452Z,13.70
2023-04-19T07:01:09.327Z,10.80
2023-04-19T07:03:42.410Z,10.93
2023-04-19T07:06:17.963Z,11.73
2023-04-19T07:08:50.780Z,13.50
2023-04-19T07:11:23.621Z,16.35
2023-04-19T07:16:31.047Z,13.73
2023-04-19T07:19:03.970Z,11.38
2023-04-19T07:21:38.506Z,15.82
2023-04-19T07:24:11.226Z,13.80
2023-04-19T07:29:17.696Z,12.90
2023-04-19T07:31:55.386Z,12.50
2023-04-19T07:34:28.969Z,11.75
2023-04-19T07:37:02.088Z,11.68
2023-04-19T07:39:35.005Z,13.35
2023-04-19T07:44:40.920Z,12.63
2023-04-19T07:47:15.046Z,13.13
2023-04-19T07:49:47.834Z,12.48
2023-04-19T07:52:20.634Z,14.82
2023-04-19T07:54:53.318Z,11.07
2023-04-19T07:57:26.442Z,11.82
2023-04-19T08:00:00.049Z,12.93
2023-04-19T08:02:34.571Z,12.77
2023-04-19T08:05:09.180Z,12.13
2023-04-19T08:07:44.452Z,12.43
2023-04-19T08:10:17.222Z,14.68
2023-04-19T08:16:12.934Z,13.70
2023-04-19T08:18:24.338Z,12.10
2023-04-19T08:20:58.156Z,10.35
2023-04-19T08:23:41.240Z,10.73
2023-04-19T08:26:18.208Z,11.80
2023-04-19T08:31:25.015Z,11.48
2023-04-19T08:34:00.285Z,14.95
2023-04-19T08:36:41.149Z,11.48
2023-04-19T08:42:11.092Z,9.43
2023-04-19T08:45:12.989Z,8.02
2023-04-19T08:50:48.442Z,8.93
2023-04-19T08:53:30.134Z,8.68
2023-04-19T08:58:56.856Z,9.40
2023-04-19T09:01:36.243Z,9.95
2023-04-19T09:04:34.799Z,7.90
2023-04-19T09:07:03.827Z,8.95
2023-04-19T09:09:45.558Z,11.05
2023-04-19T09:12:28.687Z,8.25
2023-04-19T09:15:03.289Z,7.72
2023-04-19T09:17:37.048Z,8.25
2023-04-19T09:20:10.170Z,9.43
2023-04-19T09:22:44.240Z,9.70
2023-04-19T09:28:15.619Z,7.70
2023-04-19T09:31:02.355Z,8.75
2023-04-19T09:33:44.711Z,6.35
2023-04-19T09:36:28.898Z,7.50
2023-04-19T09:39:03.586Z,5.65
2023-04-19T09:41:39.077Z,8.68
2023-04-19T09:46:53.807Z,6.53
2023-04-19T09:49:41.614Z,11.85
2023-04-19T09:52:18.761Z,7.70
2023-04-19T09:57:28.868Z,6.18
2023-04-19T10:00:07.080Z,7.28
2023-04-19T10:02:48.628Z,6.88
2023-04-19T10:05:24.072Z,6.35
2023-04-19T10:08:00.123Z,6.68
2023-04-19T10:10:41.925Z,4.55
2023-04-19T10:13:24.859Z,5.65
2023-04-19T10:16:08.277Z,6.88
2023-04-19T10:18:51.116Z,4.70
2023-04-19T10:21:24.888Z,5.90
2023-04-19T10:23:58.376Z,5.57
2023-04-19T10:27:12.819Z,5.22
2023-04-19T10:30:04.591Z,5.40
2023-04-19T10:32:41.603Z,5.32
2023-04-19T10:35:20.583Z,4.70
2023-04-19T10:38:12.067Z,4.35
2023-04-19T10:41:00.557Z,5.05
2023-04-19T10:43:35.366Z,4.75
2023-04-19T10:46:09.606Z,6.10
2023-04-19T10:48:53.769Z,7.35
2023-04-19T10:51:29.143Z,3.80
2023-04-19T10:54:03.328Z,6.20
2023-04-19T10:57:00.212Z,5.40
2023-04-19T10:59:35.178Z,5.38
2023-04-19T11:02:29.442Z,8.20
2023-04-19T11:05:04.250Z,4.72
2023-04-19T11:07:41.887Z,4.63
2023-04-19T11:10:14.771Z,4.38
2023-04-19T11:15:23.287Z,3.30
2023-04-19T11:18:11.438Z,3.70
2023-04-19T11:20:45.581Z,3.67
2023-04-19T11:23:18.923Z,2.35
2023-04-19T11:25:52.587Z,5.10
2023-04-19T11:28:25.694Z,4.70
2023-04-19T11:30:59.928Z,3.30
2023-04-19T11:33:34.538Z,2.05
2023-04-19T11:36:13.031Z,3.13
2023-04-19T11:38:48.739Z,4.25
2023-04-19T11:41:21.792Z,3.78
2023-04-19T11:43:54.566Z,5.28
2023-04-19T11:46:28.806Z,2.72
2023-04-19T11:49:01.778Z,3.17
2023-04-19T11:54:16.866Z,2.80
2023-04-19T11:57:04.587Z,4.10
2023-04-19T11:59:37.607Z,3.83
2023-04-19T12:02:13.675Z,5.43
2023-04-19T12:04:46.624Z,3.17
2023-04-19T12:09:51.951Z,3.70
2023-04-19T12:12:34.111Z,4.60
2023-04-19T12:15:08.110Z,2.30
2023-04-19T12:17:59.883Z,2.92
2023-04-19T12:20:34.201Z,4.82
2023-04-19T12:23:11.088Z,3.60
2023-04-19T12:25:45.556Z,3.17
2023-04-19T12:28:19.214Z,4.25
2023-04-19T12:33:27.377Z,2.60
2023-04-19T12:36:00.362Z,2.50
2023-04-19T12:38:33.120Z,3.78
2023-04-19T12:41:06.071Z,1.90
2023-04-19T12:43:39.145Z,3.53
2023-04-19T12:46:12.046Z,1.65
2023-04-19T12:51:20.652Z,2.38
2023-04-19T12:53:53.993Z,3.67
2023-04-19T12:56:27.146Z,2.35
2023-04-19T12:59:03.402Z,4.22
2023-04-19T13:01:36.458Z,2.83
2023-04-19T13:04:12.097Z,5.50
2023-04-19T13:06:45.070Z,3.63
2023-04-19T13:09:17.865Z,3.25
2023-04-19T13:14:23.277Z,3.83
2023-04-19T13:16:56.162Z,2.42
2023-04-19T13:19:31.270Z,3.85
2023-04-19T13:22:04.083Z,3.00
2023-04-19T13:24:36.867Z,4.63
2023-04-19T13:29:42.401Z,3.67
2023-04-19T13:32:17.207Z,2.35
2023-04-19T13:34:51.379Z,4.35
2023-04-19T13:37:24.364Z,3.30
2023-04-19T13:40:10.676Z,4.60
2023-04-19T13:42:47.925Z,5.72
2023-04-19T13:47:53.428Z,4.03
2023-04-19T13:50:27.878Z,5.30
2023-04-19T13:53:01.286Z,5.43
2023-04-19T13:55:35.271Z,2.10
2023-04-19T13:58:08.027Z,4.45
2023-04-19T14:00:41.146Z,5.10
2023-04-19T14:03:13.974Z,3.20
2023-04-19T14:05:48.345Z,3.10
2023-04-19T14:08:21.083Z,3.67
2023-04-19T14:10:53.972Z,7.00
2023-04-19T14:13:26.923Z,6.18
2023-04-19T14:15:59.689Z,6.22
2023-04-19T14:21:06.705Z,5.43
2023-04-19T14:23:39.551Z,5.50
2023-04-19T14:28:44.855Z,4.22
2023-04-19T14:33:50.547Z,7.28
2023-04-19T14:36:24.681Z,5.28
2023-04-19T14:38:57.458Z,4.82
2023-04-19T14:41:30.309Z,4.70
2023-04-19T14:46:35.739Z,3.20
2023-04-19T14:51:43.062Z,7.57
2023-04-19T14:54:16.304Z,6.28
2023-04-19T14:56:49.088Z,5.35
2023-04-19T14:59:21.906Z,4.03
2023-04-19T15:04:27.658Z,4.45
2023-04-19T15:07:01.903Z,5.82
2023-04-19T15:09:34.611Z,4.45
2023-04-19T15:12:07.350Z,4.82
2023-04-19T15:14:40.532Z,5.47
2023-04-19T15:17:13.388Z,4.57
2023-04-19T15:22:21.321Z,4.60
2023-04-19T15:24:54.112Z,2.50
2023-04-19T15:27:26.885Z,7.90
2023-04-19T15:32:34.254Z,7.55
2023-04-19T15:35:07.730Z,3.80
2023-04-19T15:37:43.868Z,4.63
2023-04-19T15:40:17.138Z,5.47
2023-04-19T15:42:49.977Z,6.95
2023-04-19T15:47:55.459Z,4.05
2023-04-19T15:53:02.455Z,5.03
2023-04-19T15:55:35.805Z,7.57
2023-04-19T15:58:09.698Z,6.40
2023-04-19T16:03:15.234Z,4.23
2023-04-19T16:05:51.474Z,4.07
2023-04-19T16:08:25.771Z,6.65
2023-04-19T16:10:58.707Z,6.55
2023-04-19T16:13:31.619Z,5.65
2023-04-19T16:16:04.758Z,4.35
2023-04-19T16:18:37.552Z,4.95
2023-04-19T16:21:10.638Z,4.05
2023-04-19T16:23:44.683Z,3.05
2023-04-19T16:26:18.750Z,2.60
2023-04-19T16:28:51.545Z,2.70
2023-04-19T16:33:56.948Z,5.10
2023-04-19T16:39:03.695Z,4.60
2023-04-19T16:41:36.456Z,2.55
2023-04-19T16:44:11.344Z,3.10
2023-04-19T16:46:44.287Z,3.33
2023-04-19T16:49:17.937Z,5.75
2023-04-19T16:51:50.950Z,4.03
2023-04-19T16:56:57.696Z,5.95
2023-04-19T17:02:03.930Z,4.80
2023-04-19T17:04:37.078Z,4.25
2023-04-19T17:07:10.469Z,4.88
2023-04-19T17:09:44.671Z,3.92
2023-04-19T17:12:18.668Z,6.32
2023-04-19T17:14:51.578Z,7.25
2023-04-19T17:19:57.840Z,6.10
2023-04-19T17:22:30.997Z,8.20
2023-04-19T17:25:05.937Z,8.50
2023-04-19T17:27:39.046Z,9.43
2023-04-19T17:30:12.486Z,4.75
2023-04-19T17:32:45.460Z,5.20
2023-04-19T17:35:18.342Z,5.97
2023-04-19T17:40:25.989Z,3.87
2023-04-19T17:42:59.620Z,8.63
2023-04-19T17:45:32.432Z,6.15
2023-04-19T17:50:38.211Z,5.25
2023-04-19T17:55:45.810Z,5.03
2023-04-19T17:58:18.622Z,6.47
2023-04-19T18:00:51.889Z,5.57
2023-04-19T18:03:25.302Z,8.77
2023-04-19T18:05:58.225Z,8.35
2023-04-19T18:08:31.040Z,7.05
2023-04-19T18:13:39.081Z,9.02
2023-04-19T18:16:13.530Z,8.02
2023-04-19T18:18:47.905Z,8.18
2023-04-19T18:21:20.770Z,5.50
2023-04-19T18:23:54.562Z,8.43
2023-04-19T18:26:37.403Z,7.72
2023-04-19T18:29:10.569Z,5.72
2023-04-19T18:31:43.593Z,6.53
2023-04-19T18:34:17.421Z,5.10
2023-04-19T18:36:50.120Z,5.72
2023-04-19T18:39:22.843Z,8.60
2023-04-19T18:42:19.013Z,9.13
2023-04-19T18:44:54.209Z,6.55
2023-04-19T18:47:28.466Z,6.55
2023-04-19T18:50:05.820Z,7.00
2023-04-19T18:52:39.153Z,5.57
2023-04-19T18:55:13.720Z,8.50
2023-04-19T18:57:48.208Z,5.90
2023-04-19T19:00:21.740Z,5.47
2023-04-19T19:02:55.333Z,5.03
2023-04-19T19:05:28.765Z,10.95
2023-04-19T19:08:02.340Z,5.90
2023-04-19T19:10:58.854Z,7.05
2023-04-19T19:13:29.502Z,6.20
2023-04-19T19:16:02.722Z,6.20
2023-04-19T19:18:36.001Z,9.38
2023-04-19T19:21:09.418Z,4.88
2023-04-19T19:23:42.815Z,9.18
2023-04-19T19:26:16.068Z,6.15
2023-04-19T19:28:50.349Z,6.07
2023-04-19T19:31:23.167Z,6.53
2023-04-19T19:34:14.718Z,6.05
2023-04-19T19:36:49.539Z,8.48
2023-04-19T19:44:34.836Z,5.38
2023-04-19T19:47:10.252Z,5.57
2023-04-19T19:50:11.596Z,6.85
2023-04-19T19:52:36.790Z,5.07
2023-04-19T19:55:12.469Z,5.00
2023-04-19T20:00:44.095Z,8.57
2023-04-19T20:03:24.649Z,5.45
2023-04-19T20:08:44.550Z,5.68
2023-04-19T20:11:17.701Z,6.68
2023-04-19T20:16:25.048Z,5.43
2023-04-19T20:18:59.465Z,4.60
2023-04-19T20:21:32.444Z,3.75
2023-04-19T20:26:38.651Z,5.75
2023-04-19T20:29:14.520Z,5.32
2023-04-19T20:31:48.988Z,6.32
2023-04-19T20:34:21.992Z,4.43
2023-04-19T20:39:27.624Z,5.13
2023-04-19T20:42:01.332Z,5.35
2023-04-19T20:44:34.086Z,4.57
2023-04-19T20:47:08.890Z,3.40
2023-04-19T20:49:42.099Z,5.95
2023-04-19T20:52:15.032Z,6.63
2023-04-19T20:57:20.734Z,4.55
2023-04-19T20:59:53.520Z,7.07
2023-04-19T21:02:28.635Z,5.95
2023-04-19T21:05:01.416Z,4.38
2023-04-19T21:07:34.117Z,10.73
2023-04-19T21:10:08.027Z,7.35
2023-04-19T21:12:40.849Z,4.47
2023-04-19T21:15:13.646Z,6.57
2023-04-19T21:17:47.801Z,4.63
2023-04-19T21:20:20.837Z,5.82
2023-04-19T21:25:26.205Z,7.40
2023-04-19T21:27:58.990Z,6.50
2023-04-19T21:30:32.852Z,8.85
2023-04-19T21:33:07.262Z,4.68
2023-04-19T21:35:40.305Z,4.40
2023-04-19T21:40:46.357Z,5.10
2023-04-19T21:43:19.146Z,4.88
2023-04-19T21:45:52.056Z,4.70
2023-04-19T21:48:26.260Z,6.82
2023-04-19T21:50:59.050Z,4.05
2023-04-19T21:53:31.923Z,7.22
2023-04-19T21:56:05.038Z,5.03
2023-04-19T21:58:38.239Z,5.75
2023-04-19T22:01:11.763Z,4.85
2023-04-19T22:03:47.249Z,4.63
2023-04-19T22:06:21.975Z,4.60
2023-04-19T22:08:56.723Z,5.18
2023-04-19T22:11:30.318Z,5.47
2023-04-19T22:14:03.300Z,5.05
2023-04-19T22:19:10.778Z,5.93
2023-04-19T22:21:43.542Z,8.20
2023-04-19T22:24:16.475Z,4.95
2023-04-19T22:29:22.871Z,6.13
2023-04-19T22:31:56.144Z,5.97
2023-04-19T22:34:30.497Z,4.90
2023-04-19T22:37:03.463Z,6.88
2023-04-19T22:42:11.145Z,4.03
2023-04-19T22:44:44.224Z,4.28
2023-04-19T22:49:51.981Z,5.00
2023-04-19T22:52:24.991Z,4.60
2023-04-19T22:54:57.677Z,4.78
2023-04-19T22:57:30.533Z,6.03
2023-04-19T23:00:05.332Z,5.60
2023-04-19T23:02:38.774Z,5.70
2023-04-19T23:05:13.628Z,4.68
2023-04-19T23:07:46.509Z,5.10
2023-04-19T23:10:19.490Z,4.57
2023-04-19T23:15:28.627Z,5.38
2023-04-19T23:18:02.662Z,5.57
2023-04-19T23:20:37.000Z,5.15
2023-04-19T23:23:09.877Z,4.82
2023-04-19T23:25:43.167Z,3.65
2023-04-19T23:28:15.980Z,7.45
2023-04-19T23:30:48.922Z,5.25
2023-04-19T23:35:56.388Z,5.40
2023-04-19T23:38:29.274Z,3.90
2023-04-19T23:41:02.058Z,7.63
2023-04-19T23:43:35.686Z,7.22
2023-04-19T23:46:08.508Z,4.85
2023-04-19T23:51:15.866Z,4.75
2023-04-19T23:53:49.572Z,4.32
2023-04-19T23:56:22.582Z,4.80
2023-04-19T23:58:55.392Z,4.65
